CMW weather

Ignacio Agramonte International Airport
Camaguey, Camag├╝ey, Cuba

Public forecast

Using degrees Celsius for public forecast. Weather courtesy of forecast.io.

Current aviation weather report (METAR) for Ignacio Agramonte International Airport

Retrieved 2020/05/25 13:50 UTC (1 hour ago):

MUCM 251350Z 08007KT 8000 FEW020 BKN100 27/25 Q1014

Aviation forecast (TAF) for Ignacio Agramonte International Airport

Retrieved 2020/05/25 12:03 UTC (3 hours ago):

TAF TAF MUCM 251100Z 2512/2612 VRB03KT 9000 SCT014 BKN060 TEMPO 2512/2514 3000 BR BECMG 2515/2517 18008KT TEMPO 2518/2524 VRB10KT 5000 SHRA SCT020CB BKN060 BECMG 2601/2603 VRB03KT